Time,TemperatureF,DewpointF,PressureIn,WindDirection,WindDirectionDegrees,WindSpeedMPH,WindSpeedGustMPH,Humidity,HourlyPrecipIn,Conditions,Clouds,dailyrainin,SoftwareType,DateUTC
2013-10-25 00:03:00,48.0,47.0,30.18,ESE,122,0.0,0.0,96,0.00,,,0.00,,2013-10-25 05:03:00,
2013-10-25 07:51:00,49.0,48.0,30.26,WNW,285,0.0,2.0,97,0.00,,,0.00,,2013-10-25 12:51:00,
2013-10-25 08:11:00,50.0,48.0,30.26,NW,320,0.0,4.0,93,0.00,,,0.00,,2013-10-25 13:11:00,
2013-10-25 08:21:00,51.0,48.0,30.26,NW,311,2.0,4.0,89,0.00,,,0.00,,2013-10-25 13:21:00,
2013-10-25 08:42:00,52.0,48.0,30.27,NW,304,1.0,5.0,86,0.00,,,0.00,,2013-10-25 13:42:00,
2013-10-25 08:52:00,53.0,49.0,30.27,NNE,25,2.0,8.0,85,0.00,,,0.00,,2013-10-25 13:52:00,
2013-10-25 09:22:00,54.0,48.0,30.28,WNW,300,2.0,5.0,79,0.00,,,0.00,,2013-10-25 14:22:00,
2013-10-25 09:42:00,55.0,48.0,30.27,WNW,297,1.0,5.0,78,0.00,,,0.00,,2013-10-25 14:42:00,
2013-10-25 09:52:00,56.0,49.0,30.28,NW,308,2.0,6.0,77,0.00,,,0.00,,2013-10-25 14:52:00,
2013-10-25 10:11:00,57.0,49.0,30.27,WNW,295,3.0,10.0,74,0.00,,,0.00,,2013-10-25 15:11:00,
2013-10-25 10:21:00,58.0,49.0,30.28,WNW,282,2.0,6.0,72,0.00,,,0.00,,2013-10-25 15:21:00,
2013-10-25 10:53:00,59.0,48.0,30.28,NW,316,4.0,8.0,68,0.00,,,0.00,,2013-10-25 15:53:00,
2013-10-25 11:23:00,61.0,47.0,30.28,West,277,2.0,6.0,61,0.00,,,0.00,,2013-10-25 16:23:00,
2013-10-25 11:43:00,61.0,47.0,30.28,WNW,283,3.0,6.0,61,0.00,,,0.00,,2013-10-25 16:43:00,
2013-10-25 11:53:00,61.0,45.0,30.28,WNW,293,6.0,8.0,56,0.00,,,0.00,,2013-10-25 16:53:00,
2013-10-25 12:23:00,63.0,47.0,30.27,ENE,68,1.0,7.0,55,0.00,,,0.00,,2013-10-25 17:23:00,
2013-10-25 12:52:00,63.0,45.0,30.26,ENE,71,4.0,11.0,52,0.00,,,0.00,,2013-10-25 17:52:00,
2013-10-25 13:12:00,63.0,45.0,30.25,NW,315,4.0,9.0,51,0.00,,,0.00,,2013-10-25 18:12:00,
2013-10-25 13:22:00,63.0,44.0,30.25,NE,47,2.0,9.0,49,0.00,,,0.00,,2013-10-25 18:22:00,
2013-10-25 13:52:00,63.0,42.0,30.25,ENE,72,2.0,7.0,46,0.00,,,0.00,,2013-10-25 18:52:00,
2013-10-25 14:11:00,64.0,44.0,30.25,NW,315,3.0,8.0,48,0.00,,,0.00,,2013-10-25 19:11:00,
2013-10-25 14:22:00,64.0,42.0,30.25,WNW,293,3.0,9.0,44,0.00,,,0.00,,2013-10-25 19:22:00,
2013-10-25 14:42:00,64.0,42.0,30.24,West,276,4.0,10.0,44,0.00,,,0.00,,2013-10-25 19:42:00,
2013-10-25 14:52:00,64.0,41.0,30.25,North,354,2.0,5.0,43,0.00,,,0.00,,2013-10-25 19:52:00,
2013-10-25 15:22:00,63.0,41.0,30.25,SW,225,4.0,8.0,44,0.00,,,0.00,,2013-10-25 20:22:00,
2013-10-25 15:52:00,63.0,40.0,30.26,ESE,107,3.0,9.0,42,0.00,,,0.00,,2013-10-25 20:52:00,
2013-10-25 16:22:00,62.0,40.0,30.27,NE,42,2.0,5.0,45,0.00,,,0.00,,2013-10-25 21:22:00,
2013-10-25 16:43:00,61.0,41.0,30.27,East,91,2.0,4.0,47,0.00,,,0.00,,2013-10-25 21:43:00,
2013-10-25 16:54:00,61.0,42.0,30.27,ENE,73,1.0,3.0,49,0.00,,,0.00,,2013-10-25 21:54:00,
2013-10-25 17:23:00,59.0,42.0,30.27,NE,50,1.0,3.0,53,0.00,,,0.00,,2013-10-25 22:23:00,
2013-10-25 17:42:00,57.0,43.0,30.27,ENE,63,0.0,1.0,59,0.00,,,0.00,,2013-10-25 22:42:00,
2013-10-25 17:53:00,55.0,43.0,30.27,ENE,63,0.0,0.0,65,0.00,,,0.00,,2013-10-25 22:53:00,
2013-10-25 18:23:00,51.0,44.0,30.28,East,94,0.0,0.0,77,0.00,,,0.00,,2013-10-25 23:23:00,
2013-10-25 18:52:00,49.0,44.0,30.29,East,94,0.0,0.0,83,0.00,,,0.00,,2013-10-25 23:52:00,
2013-10-25 19:11:00,48.0,44.0,30.30,East,94,0.0,0.0,85,0.00,,,0.00,,2013-10-26 00:11:00,
2013-10-25 19:22:00,47.0,43.0,30.30,East,94,0.0,0.0,87,0.00,,,0.00,,2013-10-26 00:22:00,
2013-10-25 19:42:00,47.0,43.0,30.30,East,94,0.0,0.0,87,0.00,,,0.00,,2013-10-26 00:42:00,
2013-10-25 19:52:00,46.0,43.0,30.31,East,93,0.0,0.0,88,0.00,,,0.00,,2013-10-26 00:52:00,
2013-10-25 20:12:00,45.0,42.0,30.32,East,93,0.0,0.0,90,0.00,,,0.00,,2013-10-26 01:12:00,
2013-10-25 20:22:00,45.0,42.0,30.32,East,93,0.0,0.0,90,0.00,,,0.00,,2013-10-26 01:22:00,
2013-10-25 20:52:00,44.0,42.0,30.33,East,94,0.0,0.0,92,0.00,,,0.00,,2013-10-26 01:52:00,
2013-10-25 21:12:00,44.0,42.0,30.33,East,94,0.0,0.0,92,0.00,,,0.00,,2013-10-26 02:12:00,
2013-10-25 21:22:00,43.0,41.0,30.34,East,93,0.0,0.0,92,0.00,,,0.00,,2013-10-26 02:22:00,
2013-10-25 21:43:00,43.0,41.0,30.34,East,94,0.0,0.0,93,0.00,,,0.00,,2013-10-26 02:43:00,
2013-10-25 21:52:00,43.0,41.0,30.34,East,94,0.0,0.0,93,0.00,,,0.00,,2013-10-26 02:52:00,
2013-10-25 22:12:00,42.0,40.0,30.34,East,94,0.0,0.0,93,0.00,,,0.00,,2013-10-26 03:12:00,
2013-10-25 22:22:00,42.0,40.0,30.34,East,94,0.0,0.0,94,0.00,,,0.00,,2013-10-26 03:22:00,
2013-10-25 22:54:00,41.0,39.0,30.34,East,94,0.0,0.0,94,0.00,,,0.00,,2013-10-26 03:54:00,
2013-10-25 23:24:00,41.0,40.0,30.33,East,93,0.0,0.0,95,0.00,,,0.00,,2013-10-26 04:24:00,
2013-10-25 23:44:00,41.0,40.0,30.33,East,93,0.0,0.0,95,0.00,,,0.00,,2013-10-26 04:44:00,
2013-10-25 23:54:00,40.0,39.0,30.33,East,94,0.0,0.0,96,0.00,,,0.00,,2013-10-26 04:54:00,